createdAt,value
2018-05-17T00:00:28.795Z,98.70
2018-05-17T00:02:56.793Z,98.60
2018-05-17T00:05:24.873Z,98.20
2018-05-17T00:07:52.902Z,98.70
2018-05-17T00:10:20.911Z,99.00
2018-05-17T00:12:48.965Z,99.00
2018-05-17T00:15:17.773Z,99.00
2018-05-17T00:17:45.790Z,99.00
2018-05-17T00:20:13.846Z,99.10
2018-05-17T00:22:41.938Z,99.40
2018-05-17T00:25:10.038Z,99.50
2018-05-17T00:27:38.875Z,99.30
2018-05-17T00:30:06.969Z,99.30
2018-05-17T00:32:35.090Z,99.10
2018-05-17T00:35:03.174Z,99.20
2018-05-17T00:37:31.323Z,99.10
2018-05-17T00:40:00.234Z,99.20
2018-05-17T00:42:28.317Z,99.20
2018-05-17T00:44:56.419Z,99.40
2018-05-17T00:47:24.479Z,99.30
2018-05-17T00:49:52.640Z,99.40
2018-05-17T00:52:20.808Z,99.30
2018-05-17T00:54:49.654Z,99.10
2018-05-17T00:57:17.702Z,99.10
2018-05-17T00:59:45.710Z,99.30
2018-05-17T01:02:14.539Z,99.60
2018-05-17T01:04:42.603Z,99.60
2018-05-17T01:07:10.701Z,99.60
2018-05-17T01:09:38.751Z,99.60
2018-05-17T01:12:06.874Z,99.60
2018-05-17T01:14:34.925Z,99.70
2018-05-17T01:17:02.962Z,99.60
2018-05-17T01:19:31.114Z,99.60
2018-05-17T01:21:59.962Z,99.70
2018-05-17T01:24:28.068Z,99.60
2018-05-17T01:26:56.951Z,99.70
2018-05-17T01:29:25.789Z,99.80
2018-05-17T01:31:53.921Z,99.70
2018-05-17T01:34:22.749Z,99.70
2018-05-17T01:37:02.578Z,99.70
2018-05-17T01:39:30.724Z,99.70
2018-05-17T01:41:59.608Z,99.70
2018-05-17T01:44:27.720Z,99.70
2018-05-17T01:46:55.790Z,99.90
2018-05-17T01:49:23.778Z,99.90
2018-05-17T01:51:51.900Z,99.90
2018-05-17T01:54:20.044Z,99.70
2018-05-17T01:56:48.117Z,99.50
2018-05-17T01:59:16.176Z,99.90
2018-05-17T02:01:44.333Z,99.90
2018-05-17T02:04:12.443Z,99.90
2018-05-17T02:06:40.466Z,99.90
2018-05-17T02:09:08.689Z,99.90
2018-05-17T02:11:36.794Z,99.90
2018-05-17T02:14:05.560Z,99.90
2018-05-17T02:16:33.586Z,99.90
2018-05-17T02:19:01.646Z,99.90
2018-05-17T02:21:29.773Z,99.90
2018-05-17T02:23:57.890Z,99.90
2018-05-17T02:26:25.989Z,99.90
2018-05-17T02:28:54.006Z,99.90
2018-05-17T02:31:22.151Z,99.90
2018-05-17T02:33:50.179Z,99.90
2018-05-17T02:36:18.209Z,99.90
2018-05-17T02:38:46.312Z,99.90
2018-05-17T02:41:15.168Z,99.90
2018-05-17T02:43:43.214Z,99.90
2018-05-17T02:46:11.289Z,99.90
2018-05-17T02:48:39.291Z,99.90
2018-05-17T02:51:07.340Z,99.90
2018-05-17T02:53:35.485Z,99.90
2018-05-17T02:56:03.590Z,99.90
2018-05-17T02:58:31.588Z,99.90
2018-05-17T03:01:00.500Z,99.90
2018-05-17T03:03:28.578Z,99.90
2018-05-17T03:05:56.662Z,99.90
2018-05-17T03:08:24.695Z,99.90
2018-05-17T03:10:53.033Z,99.90
2018-05-17T03:13:21.131Z,99.90
2018-05-17T03:15:49.262Z,99.90
2018-05-17T03:18:17.301Z,99.90
2018-05-17T03:20:46.162Z,99.90
2018-05-17T03:23:14.249Z,99.90
2018-05-17T03:25:42.327Z,99.90
2018-05-17T03:28:11.142Z,99.90
2018-05-17T03:30:39.203Z,99.90
2018-05-17T03:33:08.012Z,99.90
2018-05-17T03:35:36.036Z,99.90
2018-05-17T03:38:04.110Z,99.90
2018-05-17T03:40:32.210Z,99.90
2018-05-17T03:43:00.985Z,99.90
2018-05-17T03:45:29.877Z,99.90
2018-05-17T03:47:58.705Z,99.90
2018-05-17T03:50:26.744Z,99.90
2018-05-17T03:52:55.574Z,99.90
2018-05-17T03:55:23.656Z,99.90
2018-05-17T03:57:51.795Z,99.90
2018-05-17T04:00:19.882Z,99.90
2018-05-17T04:02:59.676Z,99.90
2018-05-17T04:05:39.686Z,99.90
2018-05-17T04:08:07.777Z,99.90
2018-05-17T04:10:35.877Z,99.90
2018-05-17T04:13:04.034Z,99.90
2018-05-17T04:15:32.039Z,99.90
2018-05-17T04:18:00.917Z,99.90
2018-05-17T04:20:29.058Z,99.90
2018-05-17T04:22:57.069Z,99.90
2018-05-17T04:25:25.860Z,99.90
2018-05-17T04:27:54.672Z,99.90
2018-05-17T04:30:22.743Z,99.90
2018-05-17T04:32:50.814Z,99.90
2018-05-17T04:35:18.990Z,99.90
2018-05-17T04:37:47.031Z,99.90
2018-05-17T04:40:15.829Z,99.90
2018-05-17T04:42:44.641Z,99.90
2018-05-17T04:45:12.696Z,99.90
2018-05-17T04:47:41.608Z,99.90
2018-05-17T04:50:09.696Z,99.90
2018-05-17T04:52:37.714Z,99.90
2018-05-17T04:55:05.812Z,99.90
2018-05-17T04:57:34.001Z,99.90
2018-05-17T05:00:02.281Z,99.90
2018-05-17T05:02:30.322Z,99.90
2018-05-17T05:04:59.227Z,99.90
2018-05-17T05:07:28.154Z,99.90
2018-05-17T05:09:56.222Z,99.90
2018-05-17T05:12:25.089Z,99.90
2018-05-17T05:14:53.209Z,99.90
2018-05-17T05:17:21.238Z,99.90
2018-05-17T05:19:49.289Z,99.90
2018-05-17T05:22:18.108Z,99.70
2018-05-17T05:24:46.147Z,99.70
2018-05-17T05:27:15.028Z,99.50
2018-05-17T05:29:43.815Z,99.10
2018-05-17T05:32:11.863Z,99.10
2018-05-17T05:34:39.981Z,99.30
2018-05-17T05:37:07.999Z,99.20
2018-05-17T05:39:36.031Z,99.20
2018-05-17T05:42:04.164Z,99.20
2018-05-17T05:44:32.213Z,99.20
2018-05-17T05:47:00.321Z,99.10
2018-05-17T05:49:29.171Z,98.90
2018-05-17T05:51:57.310Z,98.90
2018-05-17T05:54:25.411Z,98.90
2018-05-17T05:56:53.460Z,98.50
2018-05-17T05:59:21.522Z,98.30
2018-05-17T06:01:49.626Z,98.60
2018-05-17T06:04:18.514Z,97.90
2018-05-17T06:06:46.605Z,97.90
2018-05-17T06:09:14.679Z,97.60
2018-05-17T06:11:42.698Z,96.90
2018-05-17T06:14:10.854Z,97.20
2018-05-17T06:16:39.681Z,96.60
2018-05-17T06:19:07.729Z,96.60
2018-05-17T06:21:36.504Z,96.80
2018-05-17T06:24:05.340Z,96.60
2018-05-17T06:26:33.401Z,96.60
2018-05-17T06:29:01.509Z,96.60
2018-05-17T06:31:29.687Z,96.90
2018-05-17T06:33:57.743Z,96.90
2018-05-17T06:36:25.846Z,97.10
2018-05-17T06:38:53.961Z,96.50
2018-05-17T06:41:21.946Z,96.40
2018-05-17T06:43:49.968Z,95.80
2018-05-17T06:46:18.830Z,95.50
2018-05-17T06:48:46.946Z,95.50
2018-05-17T06:51:15.766Z,95.70
2018-05-17T06:53:43.859Z,95.70
2018-05-17T06:56:11.988Z,96.00
2018-05-17T06:58:40.842Z,95.90
2018-05-17T07:01:08.875Z,95.90
2018-05-17T07:03:37.026Z,96.20
2018-05-17T07:06:05.094Z,95.60
2018-05-17T07:08:33.922Z,96.20
2018-05-17T07:11:02.104Z,96.20
2018-05-17T07:13:30.163Z,95.70
2018-05-17T07:15:58.191Z,96.20
2018-05-17T07:18:27.253Z,95.70
2018-05-17T07:20:55.207Z,95.70
2018-05-17T07:23:23.310Z,95.80
2018-05-17T07:25:52.728Z,96.30
2018-05-17T07:28:21.533Z,95.90
2018-05-17T07:30:50.397Z,95.70
2018-05-17T07:33:18.434Z,95.80
2018-05-17T07:35:46.455Z,95.20
2018-05-17T07:38:15.398Z,95.70
2018-05-17T07:40:43.494Z,95.70
2018-05-17T07:43:12.031Z,95.00
2018-05-17T07:45:40.042Z,95.40
2018-05-17T07:48:08.085Z,94.90
2018-05-17T07:50:36.186Z,95.30
2018-05-17T07:53:04.188Z,94.90
2018-05-17T07:55:33.120Z,94.80
2018-05-17T07:58:02.110Z,94.20
2018-05-17T08:00:30.328Z,94.20
2018-05-17T08:02:58.363Z,94.20
2018-05-17T08:05:26.452Z,94.50
2018-05-17T08:07:54.501Z,93.90
2018-05-17T08:10:22.543Z,94.00
2018-05-17T08:12:50.564Z,92.80
2018-05-17T08:15:18.594Z,91.40
2018-05-17T08:17:46.608Z,92.00
2018-05-17T08:20:14.680Z,91.90
2018-05-17T08:22:42.704Z,91.30
2018-05-17T08:25:10.714Z,91.20
2018-05-17T08:27:38.731Z,91.80
2018-05-17T08:30:07.631Z,92.60
2018-05-17T08:32:36.481Z,91.60
2018-05-17T08:35:04.647Z,91.60
2018-05-17T08:37:32.702Z,90.20
2018-05-17T08:40:00.755Z,91.50
2018-05-17T08:42:28.857Z,89.20
2018-05-17T08:44:57.038Z,88.40
2018-05-17T08:47:25.055Z,90.50
2018-05-17T08:49:53.802Z,91.20
2018-05-17T08:52:21.858Z,91.20
2018-05-17T08:54:49.927Z,90.90
2018-05-17T08:57:18.029Z,91.00
2018-05-17T08:59:46.173Z,91.00
2018-05-17T09:02:14.226Z,90.60
2018-05-17T09:04:42.287Z,90.30
2018-05-17T09:07:10.370Z,89.30
2018-05-17T09:09:38.397Z,89.10
2018-05-17T09:12:06.388Z,89.30
2018-05-17T09:14:35.203Z,86.70
2018-05-17T09:17:03.346Z,86.60
2018-05-17T09:19:32.089Z,87.40
2018-05-17T09:22:00.136Z,87.40
2018-05-17T09:24:28.187Z,85.90
2018-05-17T09:26:57.109Z,86.80
2018-05-17T09:29:25.164Z,86.70
2018-05-17T09:31:53.191Z,85.70
2018-05-17T09:34:21.262Z,86.60
2018-05-17T09:36:49.370Z,86.30
2018-05-17T09:39:17.411Z,85.40
2018-05-17T09:41:45.479Z,85.40
2018-05-17T09:44:13.631Z,87.80
2018-05-17T09:46:41.684Z,88.30
2018-05-17T09:49:09.732Z,86.30
2018-05-17T09:51:37.773Z,84.20
2018-05-17T09:54:05.917Z,80.90
2018-05-17T09:56:33.953Z,80.70
2018-05-17T09:59:02.006Z,81.90
2018-05-17T10:01:30.851Z,89.80
2018-05-17T10:03:58.909Z,89.60
2018-05-17T10:06:26.930Z,81.00
2018-05-17T10:08:55.781Z,80.80
2018-05-17T10:11:23.933Z,80.00
2018-05-17T10:13:51.938Z,83.00
2018-05-17T10:16:20.006Z,84.90
2018-05-17T10:18:48.078Z,82.40
2018-05-17T10:21:16.162Z,81.30
2018-05-17T10:23:44.207Z,80.90
2018-05-17T10:26:12.348Z,84.80
2018-05-17T10:28:40.444Z,82.20
2018-05-17T10:31:08.506Z,82.20
2018-05-17T10:33:36.519Z,84.80
2018-05-17T10:36:04.572Z,86.20
2018-05-17T10:38:32.670Z,84.30
2018-05-17T10:41:00.747Z,84.20
2018-05-17T10:43:28.764Z,85.30
2018-05-17T10:45:56.857Z,85.40
2018-05-17T10:48:24.923Z,84.70
2018-05-17T10:50:53.024Z,86.80
2018-05-17T10:53:21.051Z,82.20
2018-05-17T10:55:49.115Z,86.80
2018-05-17T10:58:17.235Z,85.60
2018-05-17T11:00:45.311Z,84.30
2018-05-17T11:03:13.400Z,77.70
2018-05-17T11:05:42.226Z,78.90
2018-05-17T11:08:10.335Z,78.90
2018-05-17T11:10:38.402Z,76.00
2018-05-17T11:13:06.451Z,77.20
2018-05-17T11:15:34.566Z,75.70
2018-05-17T11:18:02.618Z,77.50
2018-05-17T11:20:30.639Z,78.00
2018-05-17T11:22:59.442Z,79.60
2018-05-17T11:25:27.463Z,80.10
2018-05-17T11:27:55.491Z,78.30
2018-05-17T11:30:23.517Z,76.50
2018-05-17T11:32:51.562Z,79.90
2018-05-17T11:35:19.573Z,79.80
2018-05-17T11:37:48.456Z,75.20
2018-05-17T11:40:17.302Z,79.00
2018-05-17T11:42:45.387Z,78.80
2018-05-17T11:45:13.520Z,79.60
2018-05-17T11:47:41.502Z,79.30
2018-05-17T11:50:09.614Z,78.70
2018-05-17T11:52:37.627Z,79.40
2018-05-17T11:55:05.645Z,80.20
2018-05-17T11:57:33.702Z,79.20
2018-05-17T12:00:01.783Z,78.90
2018-05-17T12:02:29.802Z,78.60
2018-05-17T12:04:58.560Z,71.90
2018-05-17T12:07:26.679Z,71.90
2018-05-17T12:09:54.713Z,68.10
2018-05-17T12:12:22.790Z,70.70
2018-05-17T12:14:50.850Z,68.30
2018-05-17T12:17:18.834Z,67.80
2018-05-17T12:19:46.830Z,66.70
2018-05-17T12:22:14.881Z,65.00
2018-05-17T12:24:43.653Z,66.40
2018-05-17T12:27:11.694Z,66.50
2018-05-17T12:29:39.780Z,67.40
2018-05-17T12:32:07.987Z,70.20
2018-05-17T12:34:36.779Z,68.80
2018-05-17T12:37:05.653Z,67.70
2018-05-17T12:39:34.446Z,69.20
2018-05-17T12:42:02.550Z,69.20
2018-05-17T12:44:30.661Z,66.90
2018-05-17T12:46:58.703Z,72.30
2018-05-17T12:49:26.741Z,68.60
2018-05-17T12:51:55.581Z,67.40
2018-05-17T12:54:23.809Z,67.40
2018-05-17T12:56:52.590Z,65.00
2018-05-17T12:59:20.732Z,65.00
2018-05-17T13:01:48.786Z,66.20
2018-05-17T13:04:16.833Z,66.70
2018-05-17T13:06:45.708Z,62.70
2018-05-17T13:09:14.577Z,67.40
2018-05-17T13:11:42.678Z,67.20
2018-05-17T13:14:11.475Z,60.30
2018-05-17T13:16:40.381Z,58.50
2018-05-17T13:19:08.408Z,58.50
2018-05-17T13:21:36.487Z,60.50
2018-05-17T13:24:04.609Z,62.40
2018-05-17T13:26:32.746Z,63.20
2018-05-17T13:29:01.629Z,61.60
2018-05-17T13:31:30.461Z,64.40
2018-05-17T13:33:58.451Z,63.50
2018-05-17T13:36:26.462Z,66.30
2018-05-17T13:38:55.365Z,61.00
2018-05-17T13:41:24.115Z,58.50
2018-05-17T13:43:52.208Z,58.40
2018-05-17T13:46:20.336Z,59.40
2018-05-17T13:48:48.405Z,61.50
2018-05-17T13:51:16.494Z,61.80
2018-05-17T13:53:44.620Z,63.10
2018-05-17T13:56:13.630Z,68.00
2018-05-17T13:58:41.649Z,68.10
2018-05-17T14:01:09.806Z,69.60
2018-05-17T14:03:37.891Z,71.10
2018-05-17T14:06:05.982Z,71.20
2018-05-17T14:08:34.033Z,70.90
2018-05-17T14:11:02.151Z,64.90
2018-05-17T14:13:30.974Z,63.20
2018-05-17T14:15:59.063Z,63.20
2018-05-17T14:18:28.081Z,64.50
2018-05-17T14:20:56.179Z,62.30
2018-05-17T14:23:24.235Z,61.90
2018-05-17T14:25:53.059Z,58.70
2018-05-17T14:28:21.126Z,58.70
2018-05-17T14:30:49.257Z,61.30
2018-05-17T14:33:17.315Z,56.30
2018-05-17T14:35:45.385Z,56.40
2018-05-17T14:38:13.407Z,56.70
2018-05-17T14:40:41.510Z,54.80
2018-05-17T14:43:09.545Z,54.70
2018-05-17T14:45:38.347Z,51.70
2018-05-17T14:48:06.366Z,51.60
2018-05-17T14:50:34.404Z,50.20
2018-05-17T14:53:02.495Z,48.20
2018-05-17T14:55:30.529Z,49.50
2018-05-17T14:57:58.562Z,47.80
2018-05-17T15:00:26.698Z,47.70
2018-05-17T15:02:54.766Z,51.40
2018-05-17T15:05:22.859Z,48.70
2018-05-17T15:07:50.933Z,57.90
2018-05-17T15:10:19.021Z,67.90
2018-05-17T15:12:47.233Z,68.20
2018-05-17T15:15:15.333Z,69.90
2018-05-17T15:17:43.382Z,71.10
2018-05-17T15:20:11.514Z,70.30
2018-05-17T15:22:39.598Z,71.70
2018-05-17T15:25:08.505Z,73.80
2018-05-17T15:27:37.421Z,74.80
2018-05-17T15:30:05.464Z,74.70
2018-05-17T15:32:34.260Z,80.40
2018-05-17T15:35:03.127Z,78.40
2018-05-17T15:37:31.137Z,78.40
2018-05-17T15:39:59.170Z,78.40
2018-05-17T15:42:27.326Z,77.50
2018-05-17T15:44:55.738Z,74.90
2018-05-17T15:47:24.538Z,76.30
2018-05-17T15:49:53.421Z,78.40
2018-05-17T15:52:22.174Z,79.40
2018-05-17T15:54:50.353Z,79.40
2018-05-17T15:57:18.404Z,81.60
2018-05-17T15:59:46.452Z,79.50
2018-05-17T16:02:14.553Z,82.30
2018-05-17T16:04:42.630Z,83.40
2018-05-17T16:07:10.679Z,82.60
2018-05-17T16:09:38.749Z,81.20
2018-05-17T16:12:06.815Z,80.90
2018-05-17T16:14:35.764Z,78.40
2018-05-17T16:17:04.547Z,78.70
2018-05-17T16:19:32.574Z,78.60
2018-05-17T16:22:00.697Z,77.90
2018-05-17T16:24:29.557Z,78.80
2018-05-17T16:26:57.646Z,78.60
2018-05-17T16:29:25.714Z,79.80
2018-05-17T16:31:53.706Z,79.20
2018-05-17T16:34:22.549Z,79.60
2018-05-17T16:36:51.356Z,80.70
2018-05-17T16:39:19.506Z,80.80
2018-05-17T16:41:47.647Z,81.60
2018-05-17T16:44:16.430Z,81.70
2018-05-17T16:46:45.262Z,81.40
2018-05-17T16:49:13.336Z,81.40
2018-05-17T16:51:41.330Z,81.90
2018-05-17T16:54:10.370Z,83.50
2018-05-17T16:56:38.474Z,85.20
2018-05-17T16:59:06.495Z,88.60
2018-05-17T17:01:35.361Z,89.40
2018-05-17T17:04:03.503Z,89.40
2018-05-17T17:06:31.579Z,89.00
2018-05-17T17:08:59.676Z,88.10
2018-05-17T17:11:27.714Z,89.40
2018-05-17T17:13:55.852Z,89.60
2018-05-17T17:16:24.663Z,89.70
2018-05-17T17:18:52.810Z,89.70
2018-05-17T17:21:21.646Z,89.80
2018-05-17T17:23:49.845Z,89.80
2018-05-17T17:26:17.925Z,90.00
2018-05-17T17:28:46.010Z,90.10
2018-05-17T17:31:14.085Z,90.00
2018-05-17T17:33:42.151Z,90.00
2018-05-17T17:36:10.227Z,90.20
2018-05-17T17:38:39.043Z,90.50
2018-05-17T17:41:07.246Z,90.50
2018-05-17T17:43:35.282Z,90.60
2018-05-17T17:46:04.118Z,90.60
2018-05-17T17:48:32.175Z,90.50
2018-05-17T17:51:00.219Z,90.60
2018-05-17T17:53:28.356Z,91.20
2018-05-17T17:55:56.440Z,93.20
2018-05-17T17:58:24.545Z,93.60
2018-05-17T18:00:52.562Z,95.20
2018-05-17T18:03:20.630Z,95.00
2018-05-17T18:05:48.770Z,95.40
2018-05-17T18:08:16.833Z,96.40
2018-05-17T18:10:44.986Z,96.50
2018-05-17T18:13:13.842Z,95.90
2018-05-17T18:15:41.872Z,95.80
2018-05-17T18:18:11.773Z,97.40
2018-05-17T18:20:41.400Z,97.00
2018-05-17T18:23:09.526Z,97.00
2018-05-17T18:25:37.645Z,97.10
2018-05-17T18:28:05.642Z,97.40
2018-05-17T18:30:33.774Z,96.80
2018-05-17T18:33:02.585Z,96.90
2018-05-17T18:35:30.673Z,97.00
2018-05-17T18:37:58.783Z,97.40
2018-05-17T18:40:26.853Z,97.30
2018-05-17T18:42:54.998Z,97.30
2018-05-17T18:45:23.095Z,97.50
2018-05-17T18:47:51.249Z,97.80
2018-05-17T18:50:19.263Z,98.00
2018-05-17T18:52:48.113Z,97.60
2018-05-17T18:55:22.855Z,97.50
2018-05-17T18:57:45.109Z,98.40
2018-05-17T19:00:14.099Z,98.20
2018-05-17T19:02:42.273Z,98.20
2018-05-17T19:05:10.310Z,98.20
2018-05-17T19:07:38.305Z,98.40
2018-05-17T19:10:06.391Z,98.10
2018-05-17T19:12:35.226Z,98.00
2018-05-17T19:15:03.342Z,97.80
2018-05-17T19:17:31.398Z,97.60
2018-05-17T19:19:59.388Z,98.00
2018-05-17T19:22:27.397Z,98.20
2018-05-17T19:24:55.554Z,98.50
2018-05-17T19:27:24.314Z,98.90
2018-05-17T19:29:52.449Z,98.90
2018-05-17T19:32:20.601Z,97.80
2018-05-17T19:34:48.725Z,97.30
2018-05-17T19:37:16.940Z,96.70
2018-05-17T19:39:45.702Z,96.70
2018-05-17T19:42:14.529Z,99.00
2018-05-17T19:44:42.617Z,98.60
2018-05-17T19:47:10.740Z,98.30
2018-05-17T19:49:38.757Z,98.30
2018-05-17T19:52:06.825Z,98.30
2018-05-17T19:54:34.941Z,98.10
2018-05-17T19:57:02.961Z,98.00
2018-05-17T19:59:31.072Z,99.30
2018-05-17T20:01:59.156Z,98.50
2018-05-17T20:04:27.256Z,98.50
2018-05-17T20:06:56.076Z,98.80
2018-05-17T20:09:24.111Z,98.80
2018-05-17T20:11:52.973Z,98.50
2018-05-17T20:14:20.987Z,98.60
2018-05-17T20:16:49.813Z,97.50
2018-05-17T20:19:17.886Z,97.50
2018-05-17T20:21:46.057Z,97.50
2018-05-17T20:24:14.174Z,94.80
2018-05-17T20:26:42.240Z,90.20
2018-05-17T20:29:10.315Z,94.60
2018-05-17T20:31:38.367Z,95.10
2018-05-17T20:34:06.491Z,94.70
2018-05-17T20:36:34.651Z,94.80
2018-05-17T20:39:03.629Z,95.40
2018-05-17T20:41:31.673Z,95.40
2018-05-17T20:43:59.700Z,96.10
2018-05-17T20:46:27.738Z,97.20
2018-05-17T20:48:55.778Z,97.20
2018-05-17T20:51:23.817Z,97.40
2018-05-17T20:53:51.922Z,97.80
2018-05-17T20:56:20.026Z,98.30
2018-05-17T20:58:48.125Z,98.10
2018-05-17T21:01:16.211Z,98.20
2018-05-17T21:03:44.324Z,98.20
2018-05-17T21:06:12.340Z,98.30
2018-05-17T21:08:41.138Z,97.70
2018-05-17T21:11:09.187Z,97.70
2018-05-17T21:13:38.071Z,97.00
2018-05-17T21:16:06.154Z,97.00
2018-05-17T21:18:35.014Z,99.00
2018-05-17T21:21:03.137Z,99.00
2018-05-17T21:23:31.206Z,99.30
2018-05-17T21:25:59.990Z,98.70
2018-05-17T21:28:28.898Z,98.80
2018-05-17T21:30:57.062Z,98.80
2018-05-17T21:33:25.052Z,98.80
2018-05-17T21:35:53.133Z,99.10
2018-05-17T21:38:21.167Z,98.80
2018-05-17T21:40:50.065Z,99.30
2018-05-17T21:43:18.848Z,98.80
2018-05-17T21:45:47.759Z,99.50
2018-05-17T21:48:15.854Z,99.50
2018-05-17T21:50:43.895Z,99.30
2018-05-17T21:53:11.963Z,99.10
2018-05-17T21:55:40.058Z,99.70
2018-05-17T21:58:08.962Z,99.90
2018-05-17T22:00:37.043Z,99.90
2018-05-17T22:03:05.099Z,99.90
2018-05-17T22:05:33.115Z,99.90
2018-05-17T22:08:02.096Z,99.90
2018-05-17T22:10:30.130Z,99.90
2018-05-17T22:12:58.238Z,99.30
2018-05-17T22:15:26.364Z,99.20
2018-05-17T22:17:54.482Z,99.50
2018-05-17T22:20:22.565Z,99.90
2018-05-17T22:22:50.678Z,99.90
2018-05-17T22:25:18.666Z,99.90
2018-05-17T22:27:46.714Z,99.60
2018-05-17T22:30:14.751Z,99.90
2018-05-17T22:32:42.827Z,99.90
2018-05-17T22:35:10.937Z,99.90
2018-05-17T22:37:39.069Z,99.90
2018-05-17T22:40:07.056Z,99.90
2018-05-17T22:42:35.973Z,99.90
2018-05-17T22:45:04.070Z,99.90
2018-05-17T22:47:32.100Z,99.80
2018-05-17T22:50:00.961Z,99.80
2018-05-17T22:52:29.058Z,99.80
2018-05-17T22:54:57.834Z,99.90
2018-05-17T22:57:38.556Z,99.90
2018-05-17T23:00:06.705Z,99.90
2018-05-17T23:02:34.812Z,99.90
2018-05-17T23:05:02.855Z,99.90
2018-05-17T23:07:30.852Z,99.50
2018-05-17T23:09:58.921Z,99.90
2018-05-17T23:12:26.926Z,99.80
2018-05-17T23:14:54.959Z,99.90
2018-05-17T23:17:22.969Z,99.70
2018-05-17T23:19:50.991Z,99.90
2018-05-17T23:22:31.029Z,99.70
2018-05-17T23:24:59.063Z,99.90
2018-05-17T23:27:27.089Z,99.90
2018-05-17T23:29:55.110Z,99.90
2018-05-17T23:32:23.156Z,99.70
2018-05-17T23:34:51.307Z,99.60
2018-05-17T23:37:21.517Z,99.90
2018-05-17T23:39:49.725Z,99.90
2018-05-17T23:42:17.808Z,99.80
2018-05-17T23:44:45.910Z,99.90
2018-05-17T23:47:14.805Z,99.50
2018-05-17T23:49:43.761Z,99.40
2018-05-17T23:52:11.855Z,99.40
2018-05-17T23:54:40.813Z,99.50
2018-05-17T23:57:08.942Z,99.60
2018-05-17T23:59:37.819Z,99.20
